Time;durP1;ratioP1;P1;durP2;ratioP2;P2;SDS_P1;SDS_P2;PMS_P1;PMS_P2;Temp;Humidity;BMP_temperature;BMP_pressure;BME280_temperature;BME280_humidity;BME280_pressure;Samples;Min_cycle;Max_cycle;Signal;HPM_P1;HPM_P2
2021/08/10 00:00:00;;;;;;;24.63;22.23;;;;;;;;;;143732;579;46012;-88
2021/08/10 00:02:27;;;;;;;22.85;20.20;;;;;;;;;;143736;981;46019;-87
2021/08/10 00:04:54;;;;;;;23.62;20.98;;;;;;;;;;143733;977;46022;-88
2021/08/10 00:07:22;;;;;;;26.83;22.17;;;;;;;;;;143731;598;47020;-89
2021/08/10 00:09:48;;;;;;;26.05;22.60;;;;;;;;;;143731;569;46920;-89
2021/08/10 00:12:15;;;;;;;24.55;21.95;;;;;;;;;;143733;918;47018;-90
2021/08/10 00:14:41;;;;;;;25.33;22.80;;;;;;;;;;143733;636;46012;-88
2021/08/10 00:17:11;;;;;;;32.70;24.55;;;;;;;;;;143730;564;47020;-89
2021/08/10 00:19:38;;;;;;;28.70;25.70;;;;;;;;;;143731;784;47022;-88
2021/08/10 00:22:04;;;;;;;28.48;24.37;;;;;;;;;;143731;954;47018;-90
2021/08/10 00:24:32;;;;;;;25.45;22.85;;;;;;;;;;143735;713;46013;-91
2021/08/10 00:27:01;;;;;;;28.35;25.17;;;;;;;;;;143730;610;47021;-89
2021/08/10 00:29:28;;;;;;;27.02;23.80;;;;;;;;;;143732;682;46012;-90
2021/08/10 00:31:55;;;;;;;26.25;23.65;;;;;;;;;;143733;832;47019;-88
2021/08/10 00:34:22;;;;;;;27.27;24.52;;;;;;;;;;143735;565;46012;-89
2021/08/10 00:36:49;;;;;;;27.10;24.33;;;;;;;;;;143732;958;46048;-89
2021/08/10 00:39:15;;;;;;;27.85;25.15;;;;;;;;;;143732;564;47023;-90
2021/08/10 00:41:42;;;;;;;29.55;26.45;;;;;;;;;;143732;646;47018;-88
2021/08/10 00:44:10;;;;;;;29.37;26.02;;;;;;;;;;143734;575;46022;-90
2021/08/10 00:46:38;;;;;;;29.75;26.62;;;;;;;;;;143731;970;47020;-89
2021/08/10 00:49:05;;;;;;;31.35;28.33;;;;;;;;;;143733;590;46012;-89
2021/08/10 00:51:32;;;;;;;32.55;29.00;;;;;;;;;;143734;704;46044;-89
2021/08/10 00:54:01;;;;;;;34.97;31.27;;;;;;;;;;143735;564;46013;-90
2021/08/10 00:56:31;;;;;;;35.25;31.67;;;;;;;;;;143729;934;47021;-89
2021/08/10 00:59:00;;;;;;;35.95;32.45;;;;;;;;;;143733;958;47022;-90
2021/08/10 01:01:27;;;;;;;36.92;33.38;;;;;;;;;;143733;965;46018;-88
2021/08/10 01:03:54;;;;;;;37.60;32.60;;;;;;;;;;143733;558;46012;-89
2021/08/10 01:07:00;;;;;;;35.55;31.92;;;;;;;;;;143730;591;47020;-89
2021/08/10 01:09:52;;;;;;;37.50;33.78;;;;;;;;;;143732;582;46922;-89
2021/08/10 01:12:27;;;;;;;36.30;32.58;;;;;;;;;;143734;885;46014;-88
2021/08/10 01:15:26;;;;;;;34.85;31.27;;;;;;;;;;143734;592;46012;-92
2021/08/10 01:18:10;;;;;;;36.70;32.70;;;;;;;;;;143731;777;47023;-90
2021/08/10 01:21:09;;;;;;;36.35;32.90;;;;;;;;;;143732;970;47022;-88
2021/08/10 01:23:37;;;;;;;37.10;33.13;;;;;;;;;;143731;580;47018;-88
2021/08/10 01:26:59;;;;;;;38.30;34.38;;;;;;;;;;143734;922;47023;-89
2021/08/10 01:30:23;;;;;;;38.33;34.42;;;;;;;;;;143732;569;47020;-90
2021/08/10 01:32:51;;;;;;;36.40;33.00;;;;;;;;;;143731;598;47022;-90
2021/08/10 01:35:20;;;;;;;35.85;32.35;;;;;;;;;;143735;599;47016;-88
2021/08/10 01:37:53;;;;;;;34.95;31.42;;;;;;;;;;143736;769;46023;-89
2021/08/10 01:40:26;;;;;;;36.38;32.60;;;;;;;;;;143730;627;47021;-88
2021/08/10 01:42:54;;;;;;;36.53;32.78;;;;;;;;;;143734;777;47022;-88
2021/08/10 01:45:22;;;;;;;39.10;34.90;;;;;;;;;;143735;795;46015;-89
2021/08/10 01:47:50;;;;;;;37.45;33.85;;;;;;;;;;143735;936;46020;-88
2021/08/10 01:50:18;;;;;;;35.45;31.92;;;;;;;;;;143735;581;46016;-89
2021/08/10 01:52:45;;;;;;;35.83;32.15;;;;;;;;;;143732;887;46012;-88
2021/08/10 01:55:14;;;;;;;36.67;33.15;;;;;;;;;;143733;886;47019;-88
2021/08/10 01:57:41;;;;;;;37.13;33.10;;;;;;;;;;143733;580;47022;-88
2021/08/10 02:00:10;;;;;;;37.55;33.25;;;;;;;;;;143734;681;47020;-89
2021/08/10 02:02:36;;;;;;;35.47;31.87;;;;;;;;;;143731;581;46039;-88
2021/08/10 02:05:06;;;;;;;37.70;34.00;;;;;;;;;;143732;594;46018;-89
2021/08/10 02:07:33;;;;;;;38.85;35.00;;;;;;;;;;143734;569;46012;-88
2021/08/10 02:10:01;;;;;;;37.92;34.28;;;;;;;;;;143731;830;47021;-89
2021/08/10 02:12:28;;;;;;;38.53;34.95;;;;;;;;;;143732;614;46020;-91
2021/08/10 02:14:57;;;;;;;38.50;34.75;;;;;;;;;;143734;830;46018;-88
2021/08/10 02:17:24;;;;;;;38.13;34.28;;;;;;;;;;143735;580;46012;-89
2021/08/10 02:19:50;;;;;;;39.17;35.38;;;;;;;;;;143733;574;47020;-88
2021/08/10 02:22:18;;;;;;;37.90;34.13;;;;;;;;;;143731;609;46921;-89
2021/08/10 02:25:04;;;;;;;35.92;32.28;;;;;;;;;;143737;579;46019;-90
2021/08/10 02:27:59;;;;;;;34.15;30.95;;;;;;;;;;143733;575;47012;-89
2021/08/10 02:30:35;;;;;;;35.75;32.17;;;;;;;;;;143734;592;46020;-88
2021/08/10 02:33:08;;;;;;;35.70;32.13;;;;;;;;;;143735;573;45922;-88
2021/08/10 02:35:36;;;;;;;37.25;33.60;;;;;;;;;;143733;573;47018;-90
2021/08/10 02:38:08;;;;;;;38.50;34.80;;;;;;;;;;143734;619;46013;-89
2021/08/10 02:40:37;;;;;;;38.47;34.50;;;;;;;;;;143734;583;46021;-89
2021/08/10 02:43:05;;;;;;;39.45;35.45;;;;;;;;;;143733;655;46022;-86
2021/08/10 02:45:35;;;;;;;40.50;36.05;;;;;;;;;;143731;887;47018;-91
2021/08/10 02:48:02;;;;;;;40.05;36.22;;;;;;;;;;143738;837;46023;-89
2021/08/10 02:50:35;;;;;;;40.97;36.83;;;;;;;;;;143733;595;46020;-89
2021/08/10 02:53:04;;;;;;;40.80;36.80;;;;;;;;;;143733;650;46023;-90
2021/08/10 02:55:34;;;;;;;40.75;36.20;;;;;;;;;;143732;591;47018;-88
2021/08/10 02:58:11;;;;;;;41.40;37.22;;;;;;;;;;143734;908;47022;-90
2021/08/10 03:00:52;;;;;;;42.72;35.30;;;;;;;;;;143733;573;46015;-90
2021/08/10 03:03:21;;;;;;;41.17;37.13;;;;;;;;;;143735;607;46021;-90
2021/08/10 03:05:53;;;;;;;39.90;36.15;;;;;;;;;;143733;580;47018;-89
2021/08/10 03:08:32;;;;;;;39.70;35.85;;;;;;;;;;143733;569;46023;-89
2021/08/10 03:11:04;;;;;;;41.78;37.03;;;;;;;;;;143733;593;46020;-89
2021/08/10 03:13:36;;;;;;;41.10;36.87;;;;;;;;;;143734;594;46022;-89
2021/08/10 03:16:06;;;;;;;40.05;36.08;;;;;;;;;;143732;601;46019;-87
2021/08/10 03:18:35;;;;;;;42.50;37.65;;;;;;;;;;143738;593;46022;-88
2021/08/10 03:21:05;;;;;;;42.90;38.63;;;;;;;;;;143733;566;47020;-88
2021/08/10 03:23:35;;;;;;;36.78;33.05;;;;;;;;;;143731;587;47012;-87
2021/08/10 03:26:03;;;;;;;35.97;32.10;;;;;;;;;;143735;746;46016;-89
2021/08/10 03:28:33;;;;;;;37.80;34.13;;;;;;;;;;143737;627;46027;-88
2021/08/10 03:31:05;;;;;;;37.55;34.03;;;;;;;;;;143735;582;46020;-89
2021/08/10 03:33:32;;;;;;;38.88;35.22;;;;;;;;;;143733;934;47022;-90
2021/08/10 03:36:00;;;;;;;39.92;35.92;;;;;;;;;;143733;575;47018;-89
2021/08/10 03:38:30;;;;;;;42.20;36.95;;;;;;;;;;143735;565;46013;-90
2021/08/10 03:40:57;;;;;;;44.22;38.92;;;;;;;;;;143735;569;46016;-89
2021/08/10 03:43:24;;;;;;;44.42;39.47;;;;;;;;;;143733;834;46022;-90
2021/08/10 03:45:52;;;;;;;40.47;36.22;;;;;;;;;;143733;570;47019;-88
2021/08/10 03:48:20;;;;;;;40.03;35.65;;;;;;;;;;143737;647;46022;-89
2021/08/10 03:50:49;;;;;;;43.33;36.08;;;;;;;;;;143735;580;47018;-90
2021/08/10 03:53:16;;;;;;;45.50;34.47;;;;;;;;;;143734;691;46023;-88
2021/08/10 03:55:47;;;;;;;43.40;35.55;;;;;;;;;;143734;579;47020;-87
2021/08/10 03:58:15;;;;;;;46.97;37.95;;;;;;;;;;143737;905;46018;-88
2021/08/10 04:00:43;;;;;;;39.85;35.70;;;;;;;;;;143732;571;47020;-89
2021/08/10 04:03:10;;;;;;;44.90;37.22;;;;;;;;;;143735;579;46923;-88
2021/08/10 04:05:43;;;;;;;41.63;37.42;;;;;;;;;;143734;572;47018;-88
2021/08/10 04:08:15;;;;;;;49.40;40.25;;;;;;;;;;143736;625;46022;-88
2021/08/10 04:10:44;;;;;;;45.35;40.67;;;;;;;;;;143732;641;47020;-88
2021/08/10 04:13:11;;;;;;;43.67;38.47;;;;;;;;;;143734;585;46012;-89
2021/08/10 04:15:45;;;;;;;51.00;40.97;;;;;;;;;;143735;639;46019;-88
2021/08/10 04:18:17;;;;;;;44.13;36.08;;;;;;;;;;143735;624;47012;-88
2021/08/10 04:20:50;;;;;;;46.47;41.88;;;;;;;;;;143734;632;47018;-90
2021/08/10 04:23:18;;;;;;;48.72;43.05;;;;;;;;;;143734;578;46922;-88
2021/08/10 04:25:45;;;;;;;47.53;42.33;;;;;;;;;;143736;610;46018;-88
2021/08/10 04:28:13;;;;;;;48.92;43.90;;;;;;;;;;143736;565;46020;-89
2021/08/10 04:30:41;;;;;;;58.00;47.42;;;;;;;;;;143733;572;47019;-88
2021/08/10 04:33:08;;;;;;;52.55;44.03;;;;;;;;;;143734;617;46022;-88
2021/08/10 04:35:35;;;;;;;56.70;44.45;;;;;;;;;;143736;640;46018;-87
2021/08/10 04:38:03;;;;;;;48.50;42.83;;;;;;;;;;143738;578;46023;-89
2021/08/10 04:40:30;;;;;;;42.13;35.90;;;;;;;;;;143734;591;46021;-88
2021/08/10 04:42:58;;;;;;;45.42;37.63;;;;;;;;;;143736;587;46012;-87
2021/08/10 04:45:25;;;;;;;46.22;40.00;;;;;;;;;;143735;595;46019;-88
2021/08/10 04:47:54;;;;;;;47.50;39.00;;;;;;;;;;143736;594;46020;-88
2021/08/10 04:50:21;;;;;;;54.42;38.70;;;;;;;;;;143734;625;47018;-89
2021/08/10 04:52:47;;;;;;;44.20;37.22;;;;;;;;;;143732;569;46922;-87
2021/08/10 04:55:14;;;;;;;45.00;36.80;;;;;;;;;;143736;748;47018;-88
2021/08/10 04:57:43;;;;;;;48.15;39.10;;;;;;;;;;143736;597;46012;-87
2021/08/10 05:00:11;;;;;;;45.53;38.88;;;;;;;;;;143735;581;46019;-89
2021/08/10 05:02:38;;;;;;;45.20;38.30;;;;;;;;;;143734;564;46022;-89
2021/08/10 05:05:06;;;;;;;43.35;37.47;;;;;;;;;;143735;581;46018;-89
2021/08/10 05:07:34;;;;;;;46.47;38.40;;;;;;;;;;143736;569;46013;-92
2021/08/10 05:10:07;;;;;;;45.05;38.05;;;;;;;;;;143736;639;47020;-89
2021/08/10 05:12:36;;;;;;;54.67;38.90;;;;;;;;;;143735;584;46022;-91
2021/08/10 05:15:05;;;;;;;44.35;37.95;;;;;;;;;;143736;578;47018;-87
2021/08/10 05:18:09;;;;;;;47.03;38.55;;;;;;;;;;143737;572;46020;-86
2021/08/10 05:21:19;;;;;;;48.43;40.00;;;;;;;;;;143738;574;45020;-88
2021/08/10 05:24:12;;;;;;;48.40;41.05;;;;;;;;;;143735;766;47022;-89
2021/08/10 05:27:42;;;;;;;;;;;;;;;;;;;;;
2021/08/10 05:31:08;;;;;;;49.30;40.33;;;;;;;;;;143738;599;46023;-89
2021/08/10 05:34:34;;;;;;;47.10;39.47;;;;;;;;;;143738;579;46018;-86
2021/08/10 05:37:12;;;;;;;54.97;41.67;;;;;;;;;;143733;635;46911;-90
2021/08/10 05:40:03;;;;;;;44.20;39.33;;;;;;;;;;143736;983;47018;-88
2021/08/10 05:42:32;;;;;;;45.85;40.58;;;;;;;;;;143742;897;46022;-87
2021/08/10 05:45:05;;;;;;;45.90;40.70;;;;;;;;;;143735;853;47020;-89
2021/08/10 05:47:59;;;;;;;50.35;40.58;;;;;;;;;;143740;569;45923;-90
2021/08/10 05:51:04;;;;;;;;;;;;;;;;;;;;;
2021/08/10 05:53:41;;;;;;;46.47;40.00;;;;;;;;;;143740;959;47023;-89
2021/08/10 05:56:08;;;;;;;48.05;40.58;;;;;;;;;;143737;886;46018;-90
2021/08/10 05:58:35;;;;;;;55.85;43.87;;;;;;;;;;143739;586;46012;-88
2021/08/10 06:01:04;;;;;;;47.67;42.97;;;;;;;;;;143741;646;46019;-89
2021/08/10 06:03:31;;;;;;;46.08;41.50;;;;;;;;;;143743;582;46012;-89
2021/08/10 06:05:58;;;;;;;45.83;41.22;;;;;;;;;;143737;958;47019;-90
2021/08/10 06:08:27;;;;;;;46.97;42.05;;;;;;;;;;143740;589;46922;-88
2021/08/10 06:10:54;;;;;;;48.00;42.88;;;;;;;;;;143740;575;46018;-88
2021/08/10 06:13:22;;;;;;;46.63;41.92;;;;;;;;;;143742;697;46012;-90
2021/08/10 06:15:49;;;;;;;46.50;41.53;;;;;;;;;;143735;666;47021;-88
2021/08/10 06:18:17;;;;;;;44.97;40.03;;;;;;;;;;143737;570;46922;-89
2021/08/10 06:20:44;;;;;;;50.22;44.95;;;;;;;;;;143735;641;46018;-90
2021/08/10 06:23:12;;;;;;;50.70;45.45;;;;;;;;;;143744;766;46051;-89
2021/08/10 06:25:39;;;;;;;52.55;47.13;;;;;;;;;;143735;577;47018;-91
2021/08/10 06:28:07;;;;;;;53.55;47.83;;;;;;;;;;143742;684;45922;-89
2021/08/10 06:30:34;;;;;;;52.00;46.67;;;;;;;;;;143739;571;47019;-89
2021/08/10 06:33:01;;;;;;;53.20;47.45;;;;;;;;;;143741;602;47020;-87
2021/08/10 06:35:29;;;;;;;55.58;49.88;;;;;;;;;;143737;672;46020;-88
2021/08/10 06:37:56;;;;;;;59.42;53.17;;;;;;;;;;143740;565;46012;-89
2021/08/10 06:40:24;;;;;;;55.25;50.00;;;;;;;;;;143734;639;47018;-89
2021/08/10 06:42:51;;;;;;;55.25;49.75;;;;;;;;;;143736;591;46021;-91
2021/08/10 06:45:19;;;;;;;57.38;51.05;;;;;;;;;;143735;570;46014;-90
2021/08/10 06:47:56;;;;;;;57.60;51.53;;;;;;;;;;143733;598;46022;-91
2021/08/10 06:50:39;;;;;;;56.85;50.30;;;;;;;;;;143735;579;46014;-88
2021/08/10 06:53:11;;;;;;;58.10;52.30;;;;;;;;;;143737;585;46023;-90
2021/08/10 06:55:38;;;;;;;58.85;52.62;;;;;;;;;;143734;576;46018;-87
2021/08/10 06:58:05;;;;;;;58.35;52.38;;;;;;;;;;143734;729;46012;-89
2021/08/10 07:00:32;;;;;;;53.58;48.33;;;;;;;;;;143735;565;47018;-88
2021/08/10 07:02:59;;;;;;;53.65;48.55;;;;;;;;;;143733;635;48012;-88
2021/08/10 07:05:26;;;;;;;53.78;48.15;;;;;;;;;;143737;743;46018;-90
2021/08/10 07:07:53;;;;;;;51.40;46.33;;;;;;;;;;143735;569;46012;-88
2021/08/10 07:10:20;;;;;;;49.65;44.58;;;;;;;;;;143734;588;47018;-87
2021/08/10 07:12:47;;;;;;;45.67;41.15;;;;;;;;;;143737;618;46012;-89
2021/08/10 07:15:13;;;;;;;36.75;29.83;;;;;;;;;;143735;576;46021;-89
2021/08/10 07:17:40;;;;;;;32.30;27.02;;;;;;;;;;143734;610;46020;-89
2021/08/10 07:20:11;;;;;;;29.12;26.12;;;;;;;;;;143735;592;47018;-86
2021/08/10 07:22:39;;;;;;;18.75;16.87;;;;;;;;;;143734;570;47023;-87
2021/08/10 07:25:06;;;;;;;16.05;14.45;;;;;;;;;;143733;645;46020;-89
2021/08/10 07:27:33;;;;;;;22.70;20.35;;;;;;;;;;143734;581;46020;-90
2021/08/10 07:30:01;;;;;;;26.65;23.55;;;;;;;;;;143735;604;47019;-91
2021/08/10 07:32:28;;;;;;;66.43;29.33;;;;;;;;;;143736;582;46022;-88
2021/08/10 07:34:55;;;;;;;54.65;32.13;;;;;;;;;;143736;730;46018;-89
2021/08/10 07:37:21;;;;;;;33.22;29.08;;;;;;;;;;143733;567;46049;-89
2021/08/10 07:39:49;;;;;;;30.00;27.20;;;;;;;;;;143734;584;47018;-90
2021/08/10 07:42:16;;;;;;;29.48;26.65;;;;;;;;;;143736;623;46012;-88
2021/08/10 07:44:42;;;;;;;27.48;23.98;;;;;;;;;;143732;585;47018;-88
2021/08/10 07:47:10;;;;;;;24.08;21.65;;;;;;;;;;143733;607;46012;-90
2021/08/10 07:49:38;;;;;;;23.62;21.40;;;;;;;;;;143736;566;46018;-89
2021/08/10 07:52:05;;;;;;;24.33;21.40;;;;;;;;;;143734;645;46012;-88
2021/08/10 07:54:32;;;;;;;24.15;21.65;;;;;;;;;;143732;585;46020;-89
2021/08/10 07:57:00;;;;;;;19.85;17.75;;;;;;;;;;143732;582;46012;-88
2021/08/10 07:59:28;;;;;;;12.95;11.10;;;;;;;;;;143731;601;47019;-88
2021/08/10 08:01:56;;;;;;;9.57;8.60;;;;;;;;;;143734;569;46012;-89
2021/08/10 08:04:22;;;;;;;11.43;10.23;;;;;;;;;;143731;586;47018;-89
2021/08/10 08:06:49;;;;;;;14.38;10.63;;;;;;;;;;143733;569;46014;-88
2021/08/10 08:09:16;;;;;;;17.52;12.02;;;;;;;;;;143730;570;47018;-90
2021/08/10 08:11:43;;;;;;;15.85;13.27;;;;;;;;;;143734;585;46012;-87
2021/08/10 08:14:10;;;;;;;13.65;12.35;;;;;;;;;;143731;599;47020;-90
2021/08/10 08:16:38;;;;;;;14.93;13.25;;;;;;;;;;143731;599;46922;-88
2021/08/10 08:19:06;;;;;;;13.93;12.63;;;;;;;;;;143730;569;46018;-89
2021/08/10 08:21:34;;;;;;;14.20;13.00;;;;;;;;;;143735;664;46013;-90
2021/08/10 08:24:01;;;;;;;16.60;14.90;;;;;;;;;;143731;616;47018;-89
2021/08/10 08:26:28;;;;;;;23.55;21.25;;;;;;;;;;143732;604;46022;-88
2021/08/10 08:28:55;;;;;;;29.65;26.75;;;;;;;;;;143732;580;47019;-88
2021/08/10 08:31:22;;;;;;;30.75;27.50;;;;;;;;;;143735;578;46042;-88
2021/08/10 08:33:49;;;;;;;36.28;32.15;;;;;;;;;;143732;675;47018;-91
2021/08/10 08:36:16;;;;;;;43.55;39.45;;;;;;;;;;143734;728;46013;-90
2021/08/10 08:38:43;;;;;;;54.45;48.80;;;;;;;;;;143734;598;46045;-89
2021/08/10 08:41:11;;;;;;;59.20;53.20;;;;;;;;;;143733;574;46022;-89
2021/08/10 08:43:41;;;;;;;65.18;58.10;;;;;;;;;;143731;649;47020;-89
2021/08/10 08:46:07;;;;;;;76.95;69.45;;;;;;;;;;143733;608;46012;-88
2021/08/10 08:48:35;;;;;;;87.43;78.72;;;;;;;;;;143729;578;47018;-88
2021/08/10 08:51:04;;;;;;;74.32;66.82;;;;;;;;;;143735;592;46012;-90
2021/08/10 08:53:33;;;;;;;58.75;52.80;;;;;;;;;;143733;572;46021;-90
2021/08/10 08:56:00;;;;;;;63.60;57.35;;;;;;;;;;143732;609;46012;-89
2021/08/10 08:58:27;;;;;;;50.90;45.58;;;;;;;;;;143732;677;46019;-91
2021/08/10 09:00:54;;;;;;;53.90;48.72;;;;;;;;;;143732;584;46020;-88
2021/08/10 09:03:23;;;;;;;37.17;33.22;;;;;;;;;;143732;570;47018;-93
2021/08/10 09:05:59;;;;;;;34.78;31.23;;;;;;;;;;143732;589;46013;-92
2021/08/10 09:08:31;;;;;;;33.22;29.98;;;;;;;;;;143732;587;46018;-90
2021/08/10 09:11:02;;;;;;;31.40;28.50;;;;;;;;;;143735;585;46045;-91
2021/08/10 09:13:30;;;;;;;26.35;23.83;;;;;;;;;;143729;569;47020;-92
2021/08/10 09:16:05;;;;;;;25.60;22.70;;;;;;;;;;143731;733;46012;-92
2021/08/10 09:18:40;;;;;;;29.45;26.42;;;;;;;;;;143735;590;46018;-91
2021/08/10 09:21:19;;;;;;;27.98;24.63;;;;;;;;;;143735;575;47012;-91
2021/08/10 09:23:54;;;;;;;32.00;25.80;;;;;;;;;;143730;576;47020;-90
2021/08/10 09:26:24;;;;;;;30.80;27.48;;;;;;;;;;143731;617;46012;-91
2021/08/10 09:28:57;;;;;;;28.42;25.37;;;;;;;;;;143734;575;46038;-91
2021/08/10 09:31:41;;;;;;;28.12;25.25;;;;;;;;;;143733;572;47020;-93
2021/08/10 09:34:29;;;;;;;32.90;29.33;;;;;;;;;;143733;563;47020;-91
2021/08/10 09:36:57;;;;;;;31.00;27.58;;;;;;;;;;143732;589;46012;-91
2021/08/10 09:39:34;;;;;;;31.58;25.73;;;;;;;;;;143731;583;47018;-92
2021/08/10 09:42:11;;;;;;;31.37;28.27;;;;;;;;;;143732;670;46022;-89
2021/08/10 09:45:00;;;;;;;29.92;26.87;;;;;;;;;;143733;623;47018;-91
2021/08/10 09:47:35;;;;;;;30.73;27.42;;;;;;;;;;143731;681;46012;-93
2021/08/10 09:50:02;;;;;;;32.17;28.87;;;;;;;;;;143734;613;45914;-91
2021/08/10 09:52:32;;;;;;;31.60;28.67;;;;;;;;;;143735;599;46012;-91
2021/08/10 09:55:16;;;;;;;33.42;30.17;;;;;;;;;;143733;577;47020;-92
2021/08/10 09:58:01;;;;;;;34.50;30.98;;;;;;;;;;143731;593;46013;-90
2021/08/10 10:00:43;;;;;;;38.53;34.67;;;;;;;;;;143733;565;47018;-90
2021/08/10 10:03:23;;;;;;;38.75;34.65;;;;;;;;;;143734;655;46012;-93
2021/08/10 10:05:50;;;;;;;45.72;36.25;;;;;;;;;;143731;585;47020;-93
2021/08/10 10:08:24;;;;;;;43.13;38.70;;;;;;;;;;143731;573;46022;-91
2021/08/10 10:10:54;;;;;;;43.55;37.95;;;;;;;;;;143732;597;46018;-90
2021/08/10 10:13:22;;;;;;;39.50;35.63;;;;;;;;;;143734;576;46013;-91
2021/08/10 10:15:50;;;;;;;41.88;37.67;;;;;;;;;;143731;572;47020;-93
2021/08/10 10:18:18;;;;;;;46.53;41.58;;;;;;;;;;143732;706;46012;-93
2021/08/10 10:20:47;;;;;;;46.65;42.05;;;;;;;;;;143732;592;46019;-91
2021/08/10 10:23:22;;;;;;;36.15;32.25;;;;;;;;;;143734;580;46012;-90
2021/08/10 10:25:51;;;;;;;35.80;31.27;;;;;;;;;;143729;654;47020;-91
2021/08/10 10:28:21;;;;;;;36.03;32.28;;;;;;;;;;143730;628;46013;-91
2021/08/10 10:30:49;;;;;;;39.05;35.05;;;;;;;;;;143733;600;47018;-91
2021/08/10 10:33:17;;;;;;;41.22;37.15;;;;;;;;;;143732;571;46012;-92
2021/08/10 10:35:46;;;;;;;38.58;34.65;;;;;;;;;;143730;635;47019;-92
2021/08/10 10:38:13;;;;;;;39.67;35.95;;;;;;;;;;143734;576;46012;-90
2021/08/10 10:40:41;;;;;;;36.90;32.97;;;;;;;;;;143732;711;47018;-92
2021/08/10 10:43:13;;;;;;;34.70;31.48;;;;;;;;;;143733;587;46013;-91
2021/08/10 10:45:43;;;;;;;34.97;31.62;;;;;;;;;;143732;573;47020;-90
2021/08/10 10:48:43;;;;;;;44.15;34.47;;;;;;;;;;143733;622;46022;-89
2021/08/10 10:51:15;;;;;;;40.92;36.80;;;;;;;;;;143735;565;46018;-92
2021/08/10 10:53:45;;;;;;;34.67;31.25;;;;;;;;;;143734;585;46012;-91
2021/08/10 10:56:44;;;;;;;34.33;30.70;;;;;;;;;;143733;610;47020;-91
2021/08/10 10:59:31;;;;;;;38.45;34.78;;;;;;;;;;143731;656;46013;-91
2021/08/10 11:02:22;;;;;;;42.17;37.80;;;;;;;;;;143735;636;46018;-92
2021/08/10 11:05:27;;;;;;;47.00;42.50;;;;;;;;;;143734;661;46014;-91
2021/08/10 11:07:58;;;;;;;49.20;44.15;;;;;;;;;;143733;606;47023;-91
2021/08/10 11:10:53;;;;;;;59.17;53.33;;;;;;;;;;143735;604;45922;-91
2021/08/10 11:13:41;;;;;;;59.20;53.50;;;;;;;;;;143738;590;45019;-90
2021/08/10 11:16:10;;;;;;;56.97;51.65;;;;;;;;;;143736;582;46012;-93
2021/08/10 11:18:40;;;;;;;66.90;60.53;;;;;;;;;;143732;566;46020;-91
2021/08/10 11:21:26;;;;;;;67.78;61.08;;;;;;;;;;143733;565;46012;-90
2021/08/10 11:23:55;;;;;;;67.18;60.50;;;;;;;;;;143732;570;46020;-92
2021/08/10 11:26:42;;;;;;;65.40;58.83;;;;;;;;;;143737;591;46022;-90
2021/08/10 11:29:10;;;;;;;69.30;62.55;;;;;;;;;;143736;571;46023;-91
2021/08/10 11:31:42;;;;;;;66.60;60.10;;;;;;;;;;143735;617;46022;-91
2021/08/10 11:34:34;;;;;;;56.22;50.33;;;;;;;;;;143736;631;46015;-90
2021/08/10 11:37:22;;;;;;;;;;;;;;;;;;143742;950;46022;-93
2021/08/10 11:40:07;;;;;;;50.90;45.90;;;;;;;;;;143744;569;47020;-91
2021/08/10 11:42:34;;;;;;;49.60;44.50;;;;;;;;;;143734;615;46023;-90
2021/08/10 11:45:08;;;;;;;46.00;41.45;;;;;;;;;;143733;569;47018;-90
2021/08/10 11:47:36;;;;;;;47.20;42.83;;;;;;;;;;143738;581;46020;-90
2021/08/10 11:50:04;;;;;;;51.95;46.70;;;;;;;;;;143731;592;47020;-91
2021/08/10 11:52:44;;;;;;;49.33;44.67;;;;;;;;;;143734;638;45923;-91
2021/08/10 11:55:12;;;;;;;47.20;42.85;;;;;;;;;;143730;569;48018;-91
2021/08/10 11:57:53;;;;;;;41.85;37.70;;;;;;;;;;143734;630;46011;-92
2021/08/10 12:00:20;;;;;;;44.13;37.60;;;;;;;;;;143731;618;47018;-91
2021/08/10 12:02:50;;;;;;;40.92;36.92;;;;;;;;;;143731;572;47010;-90
2021/08/10 12:05:18;;;;;;;42.33;37.83;;;;;;;;;;143734;585;46019;-91
2021/08/10 12:07:49;;;;;;;41.53;37.60;;;;;;;;;;143733;633;46010;-92
2021/08/10 12:10:29;;;;;;;40.23;36.43;;;;;;;;;;143730;594;47020;-90
2021/08/10 12:13:01;;;;;;;37.92;34.40;;;;;;;;;;143731;575;46011;-92
2021/08/10 12:15:44;;;;;;;34.63;31.45;;;;;;;;;;143731;620;47018;-90
2021/08/10 12:18:12;;;;;;;36.72;33.33;;;;;;;;;;143736;590;46010;-91
2021/08/10 12:20:39;;;;;;;38.47;33.97;;;;;;;;;;143731;598;47021;-91
2021/08/10 12:23:09;;;;;;;37.08;33.47;;;;;;;;;;143732;593;46010;-93
2021/08/10 12:25:36;;;;;;;44.97;40.60;;;;;;;;;;143730;590;49018;-91
2021/08/10 12:28:08;;;;;;;48.60;44.03;;;;;;;;;;143734;626;46011;-93
2021/08/10 12:30:37;;;;;;;54.55;49.55;;;;;;;;;;143731;588;47018;-93
2021/08/10 12:33:29;;;;;;;64.93;58.58;;;;;;;;;;143733;608;46022;-93
2021/08/10 12:36:02;;;;;;;68.87;62.42;;;;;;;;;;143730;570;48019;-90
2021/08/10 12:38:30;;;;;;;63.05;56.75;;;;;;;;;;143735;588;46022;-92
2021/08/10 12:40:57;;;;;;;62.90;56.75;;;;;;;;;;143731;586;47018;-91
2021/08/10 12:43:25;;;;;;;60.60;54.40;;;;;;;;;;143731;587;46018;-92
2021/08/10 12:45:53;;;;;;;52.92;47.83;;;;;;;;;;143733;693;46018;-93
2021/08/10 12:48:31;;;;;;;54.22;49.35;;;;;;;;;;143734;564;46010;-93
2021/08/10 12:51:00;;;;;;;54.85;48.50;;;;;;;;;;143730;578;47021;-91
2021/08/10 12:53:35;;;;;;;49.30;44.90;;;;;;;;;;143731;612;46010;-91
2021/08/10 12:56:06;;;;;;;43.63;39.50;;;;;;;;;;143733;596;46019;-91
2021/08/10 12:58:50;;;;;;;48.50;43.90;;;;;;;;;;143734;585;46010;-90
2021/08/10 13:01:17;;;;;;;39.83;36.13;;;;;;;;;;143734;589;46018;-93
2021/08/10 13:03:45;;;;;;;39.28;35.05;;;;;;;;;;143731;576;46011;-90
2021/08/10 13:06:24;;;;;;;38.13;34.38;;;;;;;;;;143734;631;46018;-91
2021/08/10 13:08:55;;;;;;;36.90;33.58;;;;;;;;;;143734;585;46010;-90
2021/08/10 13:11:23;;;;;;;36.85;33.47;;;;;;;;;;143731;566;47020;-93
2021/08/10 13:13:52;;;;;;;34.97;31.42;;;;;;;;;;143730;599;46010;-94
2021/08/10 13:16:49;;;;;;;33.08;29.80;;;;;;;;;;143733;602;47018;-93
2021/08/10 13:19:20;;;;;;;31.08;27.60;;;;;;;;;;143732;609;46011;-91
2021/08/10 13:21:52;;;;;;;32.72;29.63;;;;;;;;;;143731;593;47018;-91
2021/08/10 13:24:20;;;;;;;31.60;28.70;;;;;;;;;;143733;583;46010;-92
2021/08/10 13:26:50;;;;;;;31.85;28.60;;;;;;;;;;143732;589;47019;-90
2021/08/10 13:29:19;;;;;;;29.63;26.92;;;;;;;;;;143735;574;46010;-89
2021/08/10 13:31:55;;;;;;;30.80;27.87;;;;;;;;;;143732;569;46020;-93
2021/08/10 13:34:44;;;;;;;30.73;27.77;;;;;;;;;;143730;594;46922;-92
2021/08/10 13:37:11;;;;;;;29.55;26.80;;;;;;;;;;143733;729;46018;-92
2021/08/10 13:39:41;;;;;;;33.70;30.50;;;;;;;;;;143729;564;47010;-92
2021/08/10 13:42:09;;;;;;;33.00;29.67;;;;;;;;;;143730;579;47019;-94
2021/08/10 13:44:41;;;;;;;31.40;28.40;;;;;;;;;;143730;664;46921;-93
2021/08/10 13:47:08;;;;;;;34.67;29.27;;;;;;;;;;143735;720;46018;-93
2021/08/10 13:49:35;;;;;;;30.92;27.98;;;;;;;;;;143733;689;46010;-93
2021/08/10 13:52:02;;;;;;;29.87;27.00;;;;;;;;;;143732;572;46012;-92
2021/08/10 13:54:29;;;;;;;30.40;27.55;;;;;;;;;;143732;619;46022;-93
2021/08/10 13:56:56;;;;;;;30.02;27.02;;;;;;;;;;143734;573;46018;-91
2021/08/10 13:59:24;;;;;;;27.85;24.98;;;;;;;;;;143734;613;46010;-91
2021/08/10 14:01:55;;;;;;;26.67;24.17;;;;;;;;;;143733;640;46018;-90
2021/08/10 14:04:23;;;;;;;26.25;23.83;;;;;;;;;;143737;564;45922;-92
2021/08/10 14:06:52;;;;;;;26.40;24.02;;;;;;;;;;143737;583;46018;-92
2021/08/10 14:09:19;;;;;;;28.33;25.62;;;;;;;;;;143736;632;46010;-93
2021/08/10 14:11:48;;;;;;;26.75;23.95;;;;;;;;;;143733;662;47018;-92
2021/08/10 14:14:15;;;;;;;26.83;24.05;;;;;;;;;;143736;576;46010;-89
2021/08/10 14:16:42;;;;;;;24.75;22.58;;;;;;;;;;143738;640;45021;-92
2021/08/10 14:19:10;;;;;;;24.85;22.55;;;;;;;;;;143739;598;46023;-90
2021/08/10 14:21:42;;;;;;;25.77;23.27;;;;;;;;;;143733;625;47020;-91
2021/08/10 14:24:13;;;;;;;24.65;22.25;;;;;;;;;;143736;616;46022;-92
2021/08/10 14:26:46;;;;;;;26.65;24.05;;;;;;;;;;143734;586;46019;-92
2021/08/10 14:29:18;;;;;;;27.70;25.25;;;;;;;;;;143735;614;46010;-93
2021/08/10 14:31:46;;;;;;;29.48;26.55;;;;;;;;;;143736;578;46020;-92
2021/08/10 14:34:13;;;;;;;29.27;26.67;;;;;;;;;;143733;587;46923;-93
2021/08/10 14:36:44;;;;;;;29.48;26.62;;;;;;;;;;143736;576;46018;-93
2021/08/10 14:39:13;;;;;;;29.85;27.25;;;;;;;;;;143735;579;46010;-91
2021/08/10 14:41:41;;;;;;;27.83;25.10;;;;;;;;;;143734;578;46012;-90
2021/08/10 14:44:08;;;;;;;29.27;26.58;;;;;;;;;;143735;593;46022;-92
2021/08/10 14:46:43;;;;;;;28.80;26.40;;;;;;;;;;143736;584;46018;-94